Berlin, Michigan
Current Conditions -  °F | °C
As of 10:13 AM on Thursday 23 Oct 2014 (Local Time) from KD95 Reporting Station
Haze Haze  
Wind Chill:   Ceiling: 300
Heat Index:   Visibility: 2mi
Dew Point:   Wind: 0mph
Humidity: 99%   Direction: NA
Pressure: 30.25"   Gusts: NA
Location:  42.9384°N, 82.9255°W
Report Text: KD95 231413Z AUTO 00000KT 2SM BR OVC003 02/02 A3025 RMK AO2 T00190017
Loading
Personal Weather Stations






























Interactive Weather Map
Tropical Storm Tracking
New forecast layout! Learn more

10-Day Weather Forecast

Advertisements
Track Severe Weather on mobile